sensor_id;sensor_type;location;lat;lon;timestamp;temperature;humidity
5457;DHT22;2751;49.802;9.944;2022-08-03T00:00:55;20.70;1.00
5457;DHT22;2751;49.802;9.944;2022-08-03T00:03:23;20.60;1.00
5457;DHT22;2751;49.802;9.944;2022-08-03T00:05:50;20.60;28.90
5457;DHT22;2751;49.802;9.944;2022-08-03T00:08:17;20.50;99.90
5457;DHT22;2751;49.802;9.944;2022-08-03T00:10:44;20.50;1.00
5457;DHT22;2751;49.802;9.944;2022-08-03T00:13:11;20.40;1.00
5457;DHT22;2751;49.802;9.944;2022-08-03T00:15:39;20.40;99.90
5457;DHT22;2751;49.802;9.944;2022-08-03T00:18:06;20.30;1.00
5457;DHT22;2751;49.802;9.944;2022-08-03T00:20:34;20.20;99.90
5457;DHT22;2751;49.802;9.944;2022-08-03T00:23:03;20.20;1.00
5457;DHT22;2751;49.802;9.944;2022-08-03T00:25:30;20.20;1.00
5457;DHT22;2751;49.802;9.944;2022-08-03T00:27:56;20.10;17.30
5457;DHT22;2751;49.802;9.944;2022-08-03T00:30:23;20.10;33.70
5457;DHT22;2751;49.802;9.944;2022-08-03T00:32:50;20.10;63.30
5457;DHT22;2751;49.802;9.944;2022-08-03T00:35:17;20.00;70.70
5457;DHT22;2751;49.802;9.944;2022-08-03T00:37:45;20.00;72.90
5457;DHT22;2751;49.802;9.944;2022-08-03T00:40:14;20.00;74.00
5457;DHT22;2751;49.802;9.944;2022-08-03T00:42:50;19.90;75.20
5457;DHT22;2751;49.802;9.944;2022-08-03T00:45:19;19.80;76.30
5457;DHT22;2751;49.802;9.944;2022-08-03T00:47:46;19.80;77.10
5457;DHT22;2751;49.802;9.944;2022-08-03T00:50:15;19.70;78.80
5457;DHT22;2751;49.802;9.944;2022-08-03T00:52:42;19.70;78.90
5457;DHT22;2751;49.802;9.944;2022-08-03T00:55:11;19.60;79.90
5457;DHT22;2751;49.802;9.944;2022-08-03T00:57:38;19.60;81.10
5457;DHT22;2751;49.802;9.944;2022-08-03T01:00:07;19.60;82.40
5457;DHT22;2751;49.802;9.944;2022-08-03T01:02:35;19.50;83.80
5457;DHT22;2751;49.802;9.944;2022-08-03T01:05:02;19.50;84.80
5457;DHT22;2751;49.802;9.944;2022-08-03T01:07:40;19.50;85.10
5457;DHT22;2751;49.802;9.944;2022-08-03T01:10:15;19.50;85.60
5457;DHT22;2751;49.802;9.944;2022-08-03T01:12:58;19.50;86.40
5457;DHT22;2751;49.802;9.944;2022-08-03T01:15:42;19.40;87.00
5457;DHT22;2751;49.802;9.944;2022-08-03T01:18:16;19.40;87.20
5457;DHT22;2751;49.802;9.944;2022-08-03T01:20:47;19.40;87.90
5457;DHT22;2751;49.802;9.944;2022-08-03T01:23:46;19.40;88.20
5457;DHT22;2751;49.802;9.944;2022-08-03T01:26:41;19.30;89.20
5457;DHT22;2751;49.802;9.944;2022-08-03T01:29:39;19.30;90.10
5457;DHT22;2751;49.802;9.944;2022-08-03T01:32:15;19.30;90.80
5457;DHT22;2751;49.802;9.944;2022-08-03T01:34:46;19.20;91.50
5457;DHT22;2751;49.802;9.944;2022-08-03T01:37:16;19.20;92.00
5457;DHT22;2751;49.802;9.944;2022-08-03T01:39:45;19.20;93.00
5457;DHT22;2751;49.802;9.944;2022-08-03T01:42:13;19.20;93.10
5457;DHT22;2751;49.802;9.944;2022-08-03T01:44:44;19.20;93.60
5457;DHT22;2751;49.802;9.944;2022-08-03T01:47:13;19.10;94.10
5457;DHT22;2751;49.802;9.944;2022-08-03T01:49:43;19.10;94.60
5457;DHT22;2751;49.802;9.944;2022-08-03T01:52:11;19.10;95.20
5457;DHT22;2751;49.802;9.944;2022-08-03T01:54:42;19.00;95.80
5457;DHT22;2751;49.802;9.944;2022-08-03T01:57:11;19.00;96.50
5457;DHT22;2751;49.802;9.944;2022-08-03T01:59:39;19.00;97.00
5457;DHT22;2751;49.802;9.944;2022-08-03T02:02:11;19.00;97.40
5457;DHT22;2751;49.802;9.944;2022-08-03T02:04:38;18.90;97.90
5457;DHT22;2751;49.802;9.944;2022-08-03T02:07:07;18.90;98.50
5457;DHT22;2751;49.802;9.944;2022-08-03T02:09:38;18.90;99.10
5457;DHT22;2751;49.802;9.944;2022-08-03T02:12:07;18.90;99.60
5457;DHT22;2751;49.802;9.944;2022-08-03T02:14:36;18.80;99.90
5457;DHT22;2751;49.802;9.944;2022-08-03T02:17:03;18.80;99.90
5457;DHT22;2751;49.802;9.944;2022-08-03T02:19:32;18.80;99.90
5457;DHT22;2751;49.802;9.944;2022-08-03T02:22:01;18.70;99.90
5457;DHT22;2751;49.802;9.944;2022-08-03T02:24:30;18.70;99.90
5457;DHT22;2751;49.802;9.944;2022-08-03T02:26:58;18.60;99.90
5457;DHT22;2751;49.802;9.944;2022-08-03T02:29:28;18.60;99.90
5457;DHT22;2751;49.802;9.944;2022-08-03T02:31:58;18.60;99.90
5457;DHT22;2751;49.802;9.944;2022-08-03T02:34:27;18.60;99.90
5457;DHT22;2751;49.802;9.944;2022-08-03T02:36:57;18.50;99.90
5457;DHT22;2751;49.802;9.944;2022-08-03T02:39:27;18.40;99.90
5457;DHT22;2751;49.802;9.944;2022-08-03T02:41:56;18.40;99.90
5457;DHT22;2751;49.802;9.944;2022-08-03T02:44:28;18.30;99.90
5457;DHT22;2751;49.802;9.944;2022-08-03T02:47:01;18.30;99.90
5457;DHT22;2751;49.802;9.944;2022-08-03T02:49:29;18.30;99.90
5457;DHT22;2751;49.802;9.944;2022-08-03T02:51:58;18.20;99.90
5457;DHT22;2751;49.802;9.944;2022-08-03T02:54:27;18.10;99.90
5457;DHT22;2751;49.802;9.944;2022-08-03T02:56:55;18.10;99.90
5457;DHT22;2751;49.802;9.944;2022-08-03T02:59:24;18.10;99.90
5457;DHT22;2751;49.802;9.944;2022-08-03T03:01:52;18.10;99.90
5457;DHT22;2751;49.802;9.944;2022-08-03T03:04:20;18.00;99.90
5457;DHT22;2751;49.802;9.944;2022-08-03T03:06:49;18.00;99.90
5457;DHT22;2751;49.802;9.944;2022-08-03T03:09:17;18.00;99.90
5457;DHT22;2751;49.802;9.944;2022-08-03T03:11:45;17.90;99.90
5457;DHT22;2751;49.802;9.944;2022-08-03T03:14:14;17.90;99.90
5457;DHT22;2751;49.802;9.944;2022-08-03T03:16:43;17.80;99.90
5457;DHT22;2751;49.802;9.944;2022-08-03T03:19:12;17.80;99.90
5457;DHT22;2751;49.802;9.944;2022-08-03T03:21:39;17.80;99.90
5457;DHT22;2751;49.802;9.944;2022-08-03T03:24:08;17.80;99.90
5457;DHT22;2751;49.802;9.944;2022-08-03T03:26:37;17.70;99.90
5457;DHT22;2751;49.802;9.944;2022-08-03T03:29:06;17.70;99.90
5457;DHT22;2751;49.802;9.944;2022-08-03T03:31:34;17.60;99.90
5457;DHT22;2751;49.802;9.944;2022-08-03T03:34:02;17.60;99.90
5457;DHT22;2751;49.802;9.944;2022-08-03T03:36:29;17.50;99.90
5457;DHT22;2751;49.802;9.944;2022-08-03T03:38:56;17.50;99.90
5457;DHT22;2751;49.802;9.944;2022-08-03T03:41:23;17.50;99.90
5457;DHT22;2751;49.802;9.944;2022-08-03T03:43:52;17.50;99.90
5457;DHT22;2751;49.802;9.944;2022-08-03T03:46:19;17.50;99.90
5457;DHT22;2751;49.802;9.944;2022-08-03T03:48:46;17.50;99.90
5457;DHT22;2751;49.802;9.944;2022-08-03T03:51:14;17.50;99.90
5457;DHT22;2751;49.802;9.944;2022-08-03T03:53:53;17.50;99.90
5457;DHT22;2751;49.802;9.944;2022-08-03T03:56:21;17.50;99.90
5457;DHT22;2751;49.802;9.944;2022-08-03T03:58:48;17.50;99.90
5457;DHT22;2751;49.802;9.944;2022-08-03T04:01:16;17.50;99.90
5457;DHT22;2751;49.802;9.944;2022-08-03T04:03:43;17.50;99.90
5457;DHT22;2751;49.802;9.944;2022-08-03T04:06:11;17.50;99.90
5457;DHT22;2751;49.802;9.944;2022-08-03T04:08:56;17.50;99.90
5457;DHT22;2751;49.802;9.944;2022-08-03T04:11:44;17.50;99.90
5457;DHT22;2751;49.802;9.944;2022-08-03T04:14:17;17.50;99.90
5457;DHT22;2751;49.802;9.944;2022-08-03T04:16:49;17.50;99.90
5457;DHT22;2751;49.802;9.944;2022-08-03T04:19:25;17.50;99.90
5457;DHT22;2751;49.802;9.944;2022-08-03T04:21:57;17.50;99.90
5457;DHT22;2751;49.802;9.944;2022-08-03T04:24:27;17.50;99.90
5457;DHT22;2751;49.802;9.944;2022-08-03T04:26:56;17.50;99.90
5457;DHT22;2751;49.802;9.944;2022-08-03T04:29:25;17.50;99.90
5457;DHT22;2751;49.802;9.944;2022-08-03T04:31:56;17.60;99.90
5457;DHT22;2751;49.802;9.944;2022-08-03T04:34:24;17.60;99.90
5457;DHT22;2751;49.802;9.944;2022-08-03T04:36:53;17.60;99.90
5457;DHT22;2751;49.802;9.944;2022-08-03T04:39:23;17.60;99.90
5457;DHT22;2751;49.802;9.944;2022-08-03T04:41:52;17.60;99.90
5457;DHT22;2751;49.802;9.944;2022-08-03T04:44:21;17.60;99.90
5457;DHT22;2751;49.802;9.944;2022-08-03T04:46:49;17.60;99.90
5457;DHT22;2751;49.802;9.944;2022-08-03T04:49:19;17.60;99.90
5457;DHT22;2751;49.802;9.944;2022-08-03T04:51:47;17.60;99.90
5457;DHT22;2751;49.802;9.944;2022-08-03T04:54:14;17.60;99.90
5457;DHT22;2751;49.802;9.944;2022-08-03T04:56:42;17.60;99.90
5457;DHT22;2751;49.802;9.944;2022-08-03T04:59:09;17.70;99.90
5457;DHT22;2751;49.802;9.944;2022-08-03T05:01:37;17.70;99.90
5457;DHT22;2751;49.802;9.944;2022-08-03T05:04:04;17.70;99.90
5457;DHT22;2751;49.802;9.944;2022-08-03T05:06:33;17.70;99.90
5457;DHT22;2751;49.802;9.944;2022-08-03T05:09:06;17.70;99.90
5457;DHT22;2751;49.802;9.944;2022-08-03T05:11:33;17.80;99.90
5457;DHT22;2751;49.802;9.944;2022-08-03T05:14:02;17.80;99.90
5457;DHT22;2751;49.802;9.944;2022-08-03T05:16:30;17.90;99.90
5457;DHT22;2751;49.802;9.944;2022-08-03T05:18:57;17.90;99.90
5457;DHT22;2751;49.802;9.944;2022-08-03T05:21:24;18.00;99.90
5457;DHT22;2751;49.802;9.944;2022-08-03T05:23:55;18.10;99.90
5457;DHT22;2751;49.802;9.944;2022-08-03T05:26:22;18.10;99.90
5457;DHT22;2751;49.802;9.944;2022-08-03T05:28:50;18.10;99.90
5457;DHT22;2751;49.802;9.944;2022-08-03T05:31:18;18.20;99.90
5457;DHT22;2751;49.802;9.944;2022-08-03T05:33:46;18.30;99.90
5457;DHT22;2751;49.802;9.944;2022-08-03T05:36:16;18.30;99.90
5457;DHT22;2751;49.802;9.944;2022-08-03T05:38:43;18.40;99.90
5457;DHT22;2751;49.802;9.944;2022-08-03T05:41:13;18.60;99.90
5457;DHT22;2751;49.802;9.944;2022-08-03T05:43:49;18.60;99.90
5457;DHT22;2751;49.802;9.944;2022-08-03T05:46:18;18.70;99.90
5457;DHT22;2751;49.802;9.944;2022-08-03T05:48:45;18.80;99.90
5457;DHT22;2751;49.802;9.944;2022-08-03T05:51:12;18.90;99.90
5457;DHT22;2751;49.802;9.944;2022-08-03T05:53:40;18.90;99.90
5457;DHT22;2751;49.802;9.944;2022-08-03T05:56:07;19.10;99.90
5457;DHT22;2751;49.802;9.944;2022-08-03T05:58:35;19.20;99.90
5457;DHT22;2751;49.802;9.944;2022-08-03T06:01:02;19.30;99.90
5457;DHT22;2751;49.802;9.944;2022-08-03T06:03:29;19.40;99.90
5457;DHT22;2751;49.802;9.944;2022-08-03T06:05:56;19.50;99.90
5457;DHT22;2751;49.802;9.944;2022-08-03T06:08:23;19.60;99.90
5457;DHT22;2751;49.802;9.944;2022-08-03T06:10:50;19.80;99.90
5457;DHT22;2751;49.802;9.944;2022-08-03T06:13:17;19.90;99.90
5457;DHT22;2751;49.802;9.944;2022-08-03T06:15:45;20.00;99.90
5457;DHT22;2751;49.802;9.944;2022-08-03T06:18:12;20.10;99.90
5457;DHT22;2751;49.802;9.944;2022-08-03T06:20:39;20.20;99.90
5457;DHT22;2751;49.802;9.944;2022-08-03T06:23:06;20.30;99.90
5457;DHT22;2751;49.802;9.944;2022-08-03T06:25:33;20.40;99.90
5457;DHT22;2751;49.802;9.944;2022-08-03T06:28:00;20.60;99.90
5457;DHT22;2751;49.802;9.944;2022-08-03T06:30:28;20.70;99.90
5457;DHT22;2751;49.802;9.944;2022-08-03T06:32:56;20.90;99.90
5457;DHT22;2751;49.802;9.944;2022-08-03T06:35:23;21.00;99.90
5457;DHT22;2751;49.802;9.944;2022-08-03T06:37:52;21.10;99.90
5457;DHT22;2751;49.802;9.944;2022-08-03T06:40:22;21.10;99.90
5457;DHT22;2751;49.802;9.944;2022-08-03T06:42:54;21.20;99.90
5457;DHT22;2751;49.802;9.944;2022-08-03T06:45:21;21.30;99.90
5457;DHT22;2751;49.802;9.944;2022-08-03T06:48:00;21.40;99.90
5457;DHT22;2751;49.802;9.944;2022-08-03T06:50:28;21.60;99.90
5457;DHT22;2751;49.802;9.944;2022-08-03T06:52:55;21.70;99.90
5457;DHT22;2751;49.802;9.944;2022-08-03T06:55:22;21.80;99.90
5457;DHT22;2751;49.802;9.944;2022-08-03T06:57:49;21.90;99.90
5457;DHT22;2751;49.802;9.944;2022-08-03T07:00:17;22.00;99.90
5457;DHT22;2751;49.802;9.944;2022-08-03T07:02:44;22.10;99.90
5457;DHT22;2751;49.802;9.944;2022-08-03T07:05:13;22.20;99.90
5457;DHT22;2751;49.802;9.944;2022-08-03T07:07:40;22.30;99.90
5457;DHT22;2751;49.802;9.944;2022-08-03T07:10:08;22.40;99.90
5457;DHT22;2751;49.802;9.944;2022-08-03T07:12:36;22.60;99.90
5457;DHT22;2751;49.802;9.944;2022-08-03T07:15:05;22.70;99.90
5457;DHT22;2751;49.802;9.944;2022-08-03T07:17:34;22.70;99.90
5457;DHT22;2751;49.802;9.944;2022-08-03T07:20:03;22.80;99.90
5457;DHT22;2751;49.802;9.944;2022-08-03T07:22:32;23.00;99.60
5457;DHT22;2751;49.802;9.944;2022-08-03T07:24:59;23.10;98.90
5457;DHT22;2751;49.802;9.944;2022-08-03T07:27:26;23.10;98.40
5457;DHT22;2751;49.802;9.944;2022-08-03T07:29:55;23.20;98.00
5457;DHT22;2751;49.802;9.944;2022-08-03T07:32:23;23.30;97.30
5457;DHT22;2751;49.802;9.944;2022-08-03T07:34:50;23.30;97.00
5457;DHT22;2751;49.802;9.944;2022-08-03T07:37:17;23.50;96.70
5457;DHT22;2751;49.802;9.944;2022-08-03T07:39:45;23.60;96.00
5457;DHT22;2751;49.802;9.944;2022-08-03T07:42:12;23.70;95.50
5457;DHT22;2751;49.802;9.944;2022-08-03T07:44:39;23.80;95.00
5457;DHT22;2751;49.802;9.944;2022-08-03T07:47:06;24.00;94.50
5457;DHT22;2751;49.802;9.944;2022-08-03T07:49:33;24.00;94.10
5457;DHT22;2751;49.802;9.944;2022-08-03T07:52:00;24.20;93.50
5457;DHT22;2751;49.802;9.944;2022-08-03T07:54:45;24.30;92.80
5457;DHT22;2751;49.802;9.944;2022-08-03T07:57:12;24.40;92.10
5457;DHT22;2751;49.802;9.944;2022-08-03T07:59:39;24.50;91.50
5457;DHT22;2751;49.802;9.944;2022-08-03T08:02:07;24.70;91.20
5457;DHT22;2751;49.802;9.944;2022-08-03T08:04:34;24.90;89.90
5457;DHT22;2751;49.802;9.944;2022-08-03T08:07:01;24.90;88.30
5457;DHT22;2751;49.802;9.944;2022-08-03T08:09:27;25.00;87.60
5457;DHT22;2751;49.802;9.944;2022-08-03T08:11:56;25.10;90.20
5457;DHT22;2751;49.802;9.944;2022-08-03T08:14:23;25.30;85.50
5457;DHT22;2751;49.802;9.944;2022-08-03T08:16:50;25.50;85.20
5457;DHT22;2751;49.802;9.944;2022-08-03T08:19:17;25.80;83.10
5457;DHT22;2751;49.802;9.944;2022-08-03T08:21:44;26.20;79.60
5457;DHT22;2751;49.802;9.944;2022-08-03T08:24:10;27.10;77.80
5457;DHT22;2751;49.802;9.944;2022-08-03T08:26:37;27.80;73.70
5457;DHT22;2751;49.802;9.944;2022-08-03T08:29:06;28.60;69.20
5457;DHT22;2751;49.802;9.944;2022-08-03T08:31:32;29.40;68.90
5457;DHT22;2751;49.802;9.944;2022-08-03T08:33:59;30.20;61.60
5457;DHT22;2751;49.802;9.944;2022-08-03T08:36:30;30.70;57.40
5457;DHT22;2751;49.802;9.944;2022-08-03T08:38:57;31.20;55.30
5457;DHT22;2751;49.802;9.944;2022-08-03T08:41:25;31.30;53.70
5457;DHT22;2751;49.802;9.944;2022-08-03T08:43:53;32.00;54.00
5457;DHT22;2751;49.802;9.944;2022-08-03T08:46:22;32.80;50.80
5457;DHT22;2751;49.802;9.944;2022-08-03T08:48:49;33.70;49.00
5457;DHT22;2751;49.802;9.944;2022-08-03T08:51:19;34.40;46.80
5457;DHT22;2751;49.802;9.944;2022-08-03T08:53:50;34.70;47.10
5457;DHT22;2751;49.802;9.944;2022-08-03T08:56:17;35.40;44.40
5457;DHT22;2751;49.802;9.944;2022-08-03T08:58:49;36.10;43.00
5457;DHT22;2751;49.802;9.944;2022-08-03T09:01:17;35.80;42.20
5457;DHT22;2751;49.802;9.944;2022-08-03T09:03:46;36.10;42.10
5457;DHT22;2751;49.802;9.944;2022-08-03T09:06:13;37.00;40.40
5457;DHT22;2751;49.802;9.944;2022-08-03T09:08:40;37.60;39.70
5457;DHT22;2751;49.802;9.944;2022-08-03T09:11:07;38.20;1.00
5457;DHT22;2751;49.802;9.944;2022-08-03T09:13:35;38.40;1.00
5457;DHT22;2751;49.802;9.944;2022-08-03T09:16:10;39.20;1.00
5457;DHT22;2751;49.802;9.944;2022-08-03T09:18:38;39.30;1.00
5457;DHT22;2751;49.802;9.944;2022-08-03T09:21:15;39.10;1.00
5457;DHT22;2751;49.802;9.944;2022-08-03T09:23:45;38.70;1.00
5457;DHT22;2751;49.802;9.944;2022-08-03T09:26:19;39.00;1.00
5457;DHT22;2751;49.802;9.944;2022-08-03T09:28:47;40.20;1.00
5457;DHT22;2751;49.802;9.944;2022-08-03T09:31:19;40.50;1.00
5457;DHT22;2751;49.802;9.944;2022-08-03T09:33:47;40.40;1.00
5457;DHT22;2751;49.802;9.944;2022-08-03T09:36:34;40.70;1.00
5457;DHT22;2751;49.802;9.944;2022-08-03T09:39:02;41.30;1.00
5457;DHT22;2751;49.802;9.944;2022-08-03T09:41:31;41.20;1.00
5457;DHT22;2751;49.802;9.944;2022-08-03T09:43:58;41.30;1.00
5457;DHT22;2751;49.802;9.944;2022-08-03T09:46:25;41.90;1.00
5457;DHT22;2751;49.802;9.944;2022-08-03T09:49:08;41.80;1.00
5457;DHT22;2751;49.802;9.944;2022-08-03T09:51:38;42.10;1.00
5457;DHT22;2751;49.802;9.944;2022-08-03T09:54:05;42.80;1.00
5457;DHT22;2751;49.802;9.944;2022-08-03T09:56:43;41.60;1.00
5457;DHT22;2751;49.802;9.944;2022-08-03T09:59:10;40.70;1.00
5457;DHT22;2751;49.802;9.944;2022-08-03T10:01:39;41.00;1.00
5457;DHT22;2751;49.802;9.944;2022-08-03T10:04:11;41.50;1.00
5457;DHT22;2751;49.802;9.944;2022-08-03T10:06:43;42.50;1.00
5457;DHT22;2751;49.802;9.944;2022-08-03T10:09:13;43.00;1.00
5457;DHT22;2751;49.802;9.944;2022-08-03T10:11:41;43.50;1.00
5457;DHT22;2751;49.802;9.944;2022-08-03T10:14:09;43.20;1.00
5457;DHT22;2751;49.802;9.944;2022-08-03T10:16:43;43.90;1.00
5457;DHT22;2751;49.802;9.944;2022-08-03T10:19:10;44.40;1.00
5457;DHT22;2751;49.802;9.944;2022-08-03T10:21:40;43.80;1.00
5457;DHT22;2751;49.802;9.944;2022-08-03T10:24:09;44.00;1.00
5457;DHT22;2751;49.802;9.944;2022-08-03T10:26:38;44.00;1.00
5457;DHT22;2751;49.802;9.944;2022-08-03T10:29:09;44.30;1.00
5457;DHT22;2751;49.802;9.944;2022-08-03T10:31:39;44.80;1.00
5457;DHT22;2751;49.802;9.944;2022-08-03T10:34:21;44.40;1.00
5457;DHT22;2751;49.802;9.944;2022-08-03T10:36:49;44.30;1.00
5457;DHT22;2751;49.802;9.944;2022-08-03T10:39:22;44.10;1.00
5457;DHT22;2751;49.802;9.944;2022-08-03T10:41:49;44.90;1.00
5457;DHT22;2751;49.802;9.944;2022-08-03T10:44:18;44.50;1.00
5457;DHT22;2751;49.802;9.944;2022-08-03T10:46:46;44.90;1.00
5457;DHT22;2751;49.802;9.944;2022-08-03T10:49:16;45.10;1.00
5457;DHT22;2751;49.802;9.944;2022-08-03T10:51:45;45.20;1.00
5457;DHT22;2751;49.802;9.944;2022-08-03T10:54:38;45.30;1.00
5457;DHT22;2751;49.802;9.944;2022-08-03T10:57:43;44.80;1.00
5457;DHT22;2751;49.802;9.944;2022-08-03T11:00:10;46.10;1.00
5457;DHT22;2751;49.802;9.944;2022-08-03T11:03:07;46.30;1.00
5457;DHT22;2751;49.802;9.944;2022-08-03T11:05:37;46.10;1.00
5457;DHT22;2751;49.802;9.944;2022-08-03T11:08:26;45.50;1.00
5457;DHT22;2751;49.802;9.944;2022-08-03T11:10:57;45.90;1.00
5457;DHT22;2751;49.802;9.944;2022-08-03T11:13:25;46.10;1.00
5457;DHT22;2751;49.802;9.944;2022-08-03T11:15:57;45.20;1.00
5457;DHT22;2751;49.802;9.944;2022-08-03T11:18:25;45.30;1.00
5457;DHT22;2751;49.802;9.944;2022-08-03T11:20:53;46.20;1.00
5457;DHT22;2751;49.802;9.944;2022-08-03T11:23:39;46.70;1.00
5457;DHT22;2751;49.802;9.944;2022-08-03T11:26:15;46.50;1.00
5457;DHT22;2751;49.802;9.944;2022-08-03T11:28:44;46.00;1.00
5457;DHT22;2751;49.802;9.944;2022-08-03T11:31:42;46.80;1.00
5457;DHT22;2751;49.802;9.944;2022-08-03T11:34:11;47.70;1.00
5457;DHT22;2751;49.802;9.944;2022-08-03T11:39:39;47.80;1.00
5457;DHT22;2751;49.802;9.944;2022-08-03T11:42:43;48.40;1.00
5457;DHT22;2751;49.802;9.944;2022-08-03T11:45:12;48.50;1.00
5457;DHT22;2751;49.802;9.944;2022-08-03T11:47:40;48.20;1.00
5457;DHT22;2751;49.802;9.944;2022-08-03T11:50:09;48.10;1.00
5457;DHT22;2751;49.802;9.944;2022-08-03T11:52:38;47.30;1.00
5457;DHT22;2751;49.802;9.944;2022-08-03T11:55:10;47.10;1.00
5457;DHT22;2751;49.802;9.944;2022-08-03T11:57:37;47.40;1.00
5457;DHT22;2751;49.802;9.944;2022-08-03T12:00:22;46.90;1.00
5457;DHT22;2751;49.802;9.944;2022-08-03T12:03:01;46.70;1.00
5457;DHT22;2751;49.802;9.944;2022-08-03T12:05:43;45.60;1.00
5457;DHT22;2751;49.802;9.944;2022-08-03T12:08:11;45.40;1.00
5457;DHT22;2751;49.802;9.944;2022-08-03T12:10:39;45.70;1.00
5457;DHT22;2751;49.802;9.944;2022-08-03T12:13:07;46.70;1.00
5457;DHT22;2751;49.802;9.944;2022-08-03T12:15:36;46.80;1.00
5457;DHT22;2751;49.802;9.944;2022-08-03T12:18:12;47.60;1.00
5457;DHT22;2751;49.802;9.944;2022-08-03T12:20:40;48.70;1.00
5457;DHT22;2751;49.802;9.944;2022-08-03T12:23:07;49.20;1.00
5457;DHT22;2751;49.802;9.944;2022-08-03T12:25:36;49.80;1.00
5457;DHT22;2751;49.802;9.944;2022-08-03T12:28:09;50.30;1.00
5457;DHT22;2751;49.802;9.944;2022-08-03T12:30:38;50.50;1.00
5457;DHT22;2751;49.802;9.944;2022-08-03T12:33:19;51.10;1.00
5457;DHT22;2751;49.802;9.944;2022-08-03T12:35:48;50.60;1.00
5457;DHT22;2751;49.802;9.944;2022-08-03T12:38:20;50.40;1.00
5457;DHT22;2751;49.802;9.944;2022-08-03T12:41:01;51.10;1.00
5457;DHT22;2751;49.802;9.944;2022-08-03T12:43:29;51.80;1.00
5457;DHT22;2751;49.802;9.944;2022-08-03T12:46:14;50.80;1.00
5457;DHT22;2751;49.802;9.944;2022-08-03T12:49:05;50.40;1.00
5457;DHT22;2751;49.802;9.944;2022-08-03T12:51:34;48.60;1.00
5457;DHT22;2751;49.802;9.944;2022-08-03T12:54:02;49.20;1.00
5457;DHT22;2751;49.802;9.944;2022-08-03T12:56:30;49.00;1.00
5457;DHT22;2751;49.802;9.944;2022-08-03T12:58:57;48.00;1.00
5457;DHT22;2751;49.802;9.944;2022-08-03T13:01:25;48.60;1.00
5457;DHT22;2751;49.802;9.944;2022-08-03T13:03:54;49.60;1.00
5457;DHT22;2751;49.802;9.944;2022-08-03T13:06:22;49.70;1.00
5457;DHT22;2751;49.802;9.944;2022-08-03T13:09:01;48.90;1.00
5457;DHT22;2751;49.802;9.944;2022-08-03T13:11:28;49.10;1.00
5457;DHT22;2751;49.802;9.944;2022-08-03T13:13:55;49.70;1.00
5457;DHT22;2751;49.802;9.944;2022-08-03T13:16:22;49.60;1.00
5457;DHT22;2751;49.802;9.944;2022-08-03T13:18:50;49.60;1.00
5457;DHT22;2751;49.802;9.944;2022-08-03T13:21:19;49.40;1.00
5457;DHT22;2751;49.802;9.944;2022-08-03T13:23:46;49.60;1.00
5457;DHT22;2751;49.802;9.944;2022-08-03T13:26:13;50.30;1.00
5457;DHT22;2751;49.802;9.944;2022-08-03T13:28:40;51.60;1.00
5457;DHT22;2751;49.802;9.944;2022-08-03T13:31:07;51.70;1.00
5457;DHT22;2751;49.802;9.944;2022-08-03T13:33:34;50.30;1.00
5457;DHT22;2751;49.802;9.944;2022-08-03T13:36:02;50.00;1.00
5457;DHT22;2751;49.802;9.944;2022-08-03T13:38:29;50.10;1.00
5457;DHT22;2751;49.802;9.944;2022-08-03T13:40:57;49.40;1.00
5457;DHT22;2751;49.802;9.944;2022-08-03T13:43:25;49.60;1.00
5457;DHT22;2751;49.802;9.944;2022-08-03T13:45:52;50.60;1.00
5457;DHT22;2751;49.802;9.944;2022-08-03T13:48:19;51.00;1.00
5457;DHT22;2751;49.802;9.944;2022-08-03T13:50:45;50.80;1.00
5457;DHT22;2751;49.802;9.944;2022-08-03T13:53:14;50.80;1.00
5457;DHT22;2751;49.802;9.944;2022-08-03T13:55:40;50.80;1.00
5457;DHT22;2751;49.802;9.944;2022-08-03T13:58:07;50.60;1.00
5457;DHT22;2751;49.802;9.944;2022-08-03T14:00:36;49.60;1.00
5457;DHT22;2751;49.802;9.944;2022-08-03T14:03:04;50.00;1.00
5457;DHT22;2751;49.802;9.944;2022-08-03T14:05:32;49.60;1.00
5457;DHT22;2751;49.802;9.944;2022-08-03T14:07:59;49.90;1.00
5457;DHT22;2751;49.802;9.944;2022-08-03T14:10:27;50.20;1.00
5457;DHT22;2751;49.802;9.944;2022-08-03T14:12:54;49.70;1.00
5457;DHT22;2751;49.802;9.944;2022-08-03T14:15:24;50.00;1.00
5457;DHT22;2751;49.802;9.944;2022-08-03T14:17:53;49.70;1.00
5457;DHT22;2751;49.802;9.944;2022-08-03T14:20:19;49.90;1.00
5457;DHT22;2751;49.802;9.944;2022-08-03T14:22:46;49.00;1.00
5457;DHT22;2751;49.802;9.944;2022-08-03T14:25:13;47.50;1.00
5457;DHT22;2751;49.802;9.944;2022-08-03T14:27:41;47.80;1.00
5457;DHT22;2751;49.802;9.944;2022-08-03T14:30:09;48.50;1.00
5457;DHT22;2751;49.802;9.944;2022-08-03T14:32:36;48.20;1.00
5457;DHT22;2751;49.802;9.944;2022-08-03T14:35:04;48.10;1.00
5457;DHT22;2751;49.802;9.944;2022-08-03T14:37:31;48.40;1.00
5457;DHT22;2751;49.802;9.944;2022-08-03T14:39:58;46.90;1.00
5457;DHT22;2751;49.802;9.944;2022-08-03T14:42:25;47.60;1.00
5457;DHT22;2751;49.802;9.944;2022-08-03T14:44:53;48.60;1.00
5457;DHT22;2751;49.802;9.944;2022-08-03T14:47:20;49.30;1.00
5457;DHT22;2751;49.802;9.944;2022-08-03T14:49:47;49.60;1.00
5457;DHT22;2751;49.802;9.944;2022-08-03T14:52:14;50.10;1.00
5457;DHT22;2751;49.802;9.944;2022-08-03T14:54:41;50.30;1.00
5457;DHT22;2751;49.802;9.944;2022-08-03T14:57:08;48.70;1.00
5457;DHT22;2751;49.802;9.944;2022-08-03T14:59:35;49.00;1.00
5457;DHT22;2751;49.802;9.944;2022-08-03T15:02:03;49.70;1.00
5457;DHT22;2751;49.802;9.944;2022-08-03T15:04:30;49.90;1.00
5457;DHT22;2751;49.802;9.944;2022-08-03T15:06:57;50.00;1.00
5457;DHT22;2751;49.802;9.944;2022-08-03T15:09:24;48.30;1.00
5457;DHT22;2751;49.802;9.944;2022-08-03T15:11:50;47.50;1.00
5457;DHT22;2751;49.802;9.944;2022-08-03T15:14:17;48.00;1.00
5457;DHT22;2751;49.802;9.944;2022-08-03T15:16:44;47.60;1.00
5457;DHT22;2751;49.802;9.944;2022-08-03T15:19:12;47.50;1.00
5457;DHT22;2751;49.802;9.944;2022-08-03T15:21:39;47.30;1.00
5457;DHT22;2751;49.802;9.944;2022-08-03T15:24:06;47.80;1.00
5457;DHT22;2751;49.802;9.944;2022-08-03T15:26:33;48.90;1.00
5457;DHT22;2751;49.802;9.944;2022-08-03T15:29:00;48.40;1.00
5457;DHT22;2751;49.802;9.944;2022-08-03T15:31:28;48.00;1.00
5457;DHT22;2751;49.802;9.944;2022-08-03T15:33:54;46.60;99.90
5457;DHT22;2751;49.802;9.944;2022-08-03T15:36:23;46.00;99.90
5457;DHT22;2751;49.802;9.944;2022-08-03T15:38:51;46.10;99.90
5457;DHT22;2751;49.802;9.944;2022-08-03T15:41:18;46.70;99.90
5457;DHT22;2751;49.802;9.944;2022-08-03T15:43:45;47.60;1.00
5457;DHT22;2751;49.802;9.944;2022-08-03T15:46:12;47.40;1.00
5457;DHT22;2751;49.802;9.944;2022-08-03T15:48:40;46.60;99.90
5457;DHT22;2751;49.802;9.944;2022-08-03T15:51:07;46.10;99.90
5457;DHT22;2751;49.802;9.944;2022-08-03T15:53:36;46.40;99.90
5457;DHT22;2751;49.802;9.944;2022-08-03T15:56:04;47.10;1.00
5457;DHT22;2751;49.802;9.944;2022-08-03T15:58:32;47.60;1.00
5457;DHT22;2751;49.802;9.944;2022-08-03T16:01:00;47.90;1.00
5457;DHT22;2751;49.802;9.944;2022-08-03T16:03:27;47.80;1.00
5457;DHT22;2751;49.802;9.944;2022-08-03T16:05:59;46.30;1.00
5457;DHT22;2751;49.802;9.944;2022-08-03T16:08:26;44.50;99.90
5457;DHT22;2751;49.802;9.944;2022-08-03T16:10:54;43.80;99.90
5457;DHT22;2751;49.802;9.944;2022-08-03T16:13:21;44.30;99.90
5457;DHT22;2751;49.802;9.944;2022-08-03T16:15:48;44.70;99.90
5457;DHT22;2751;49.802;9.944;2022-08-03T16:18:15;44.80;99.90
5457;DHT22;2751;49.802;9.944;2022-08-03T16:20:43;45.50;99.90
5457;DHT22;2751;49.802;9.944;2022-08-03T16:23:11;46.40;99.90
5457;DHT22;2751;49.802;9.944;2022-08-03T16:25:38;47.10;99.90
5457;DHT22;2751;49.802;9.944;2022-08-03T16:28:07;47.20;1.00